sensor_id;sensor_type;location;lat;lon;timestamp;temperature;humidity
6333;DHT22;3199;49.102;8.856;2022-08-30T00:00:52;20.90;67.40
6333;DHT22;3199;49.102;8.856;2022-08-30T00:03:38;20.90;67.20
6333;DHT22;3199;49.102;8.856;2022-08-30T00:06:06;20.80;67.60
6333;DHT22;3199;49.102;8.856;2022-08-30T00:08:33;20.80;67.60
6333;DHT22;3199;49.102;8.856;2022-08-30T00:10:59;20.80;67.80
6333;DHT22;3199;49.102;8.856;2022-08-30T00:13:26;20.80;67.00
6333;DHT22;3199;49.102;8.856;2022-08-30T00:15:52;20.80;68.20
6333;DHT22;3199;49.102;8.856;2022-08-30T00:18:19;20.80;67.20
6333;DHT22;3199;49.102;8.856;2022-08-30T00:20:45;20.80;68.20
6333;DHT22;3199;49.102;8.856;2022-08-30T00:23:11;20.80;67.70
6333;DHT22;3199;49.102;8.856;2022-08-30T00:25:37;20.80;68.00
6333;DHT22;3199;49.102;8.856;2022-08-30T00:28:02;20.80;68.00
6333;DHT22;3199;49.102;8.856;2022-08-30T00:30:29;20.70;67.90
6333;DHT22;3199;49.102;8.856;2022-08-30T00:32:55;20.70;68.20
6333;DHT22;3199;49.102;8.856;2022-08-30T00:35:21;20.70;68.50
6333;DHT22;3199;49.102;8.856;2022-08-30T00:37:47;20.70;68.50
6333;DHT22;3199;49.102;8.856;2022-08-30T00:40:15;20.60;68.70
6333;DHT22;3199;49.102;8.856;2022-08-30T00:42:42;20.60;69.30
6333;DHT22;3199;49.102;8.856;2022-08-30T00:45:16;20.60;69.60
6333;DHT22;3199;49.102;8.856;2022-08-30T00:47:42;20.50;69.80
6333;DHT22;3199;49.102;8.856;2022-08-30T00:50:09;20.60;69.90
6333;DHT22;3199;49.102;8.856;2022-08-30T00:52:35;20.50;69.60
6333;DHT22;3199;49.102;8.856;2022-08-30T00:55:03;20.50;70.30
6333;DHT22;3199;49.102;8.856;2022-08-30T00:57:30;20.50;70.20
6333;DHT22;3199;49.102;8.856;2022-08-30T00:59:56;20.50;70.50
6333;DHT22;3199;49.102;8.856;2022-08-30T01:02:22;20.50;70.60
6333;DHT22;3199;49.102;8.856;2022-08-30T01:04:50;20.40;70.50
6333;DHT22;3199;49.102;8.856;2022-08-30T01:07:17;20.30;70.90
6333;DHT22;3199;49.102;8.856;2022-08-30T01:09:43;20.30;71.80
6333;DHT22;3199;49.102;8.856;2022-08-30T01:12:09;20.30;72.50
6333;DHT22;3199;49.102;8.856;2022-08-30T01:14:34;20.20;72.80
6333;DHT22;3199;49.102;8.856;2022-08-30T01:17:01;20.20;73.00
6333;DHT22;3199;49.102;8.856;2022-08-30T01:19:35;20.10;72.80
6333;DHT22;3199;49.102;8.856;2022-08-30T01:22:10;20.10;72.80
6333;DHT22;3199;49.102;8.856;2022-08-30T01:24:41;20.10;73.20
6333;DHT22;3199;49.102;8.856;2022-08-30T01:27:08;20.00;73.30
6333;DHT22;3199;49.102;8.856;2022-08-30T01:29:34;20.00;73.30
6333;DHT22;3199;49.102;8.856;2022-08-30T01:31:59;19.90;73.50
6333;DHT22;3199;49.102;8.856;2022-08-30T01:34:25;19.90;73.90
6333;DHT22;3199;49.102;8.856;2022-08-30T01:36:51;19.80;74.40
6333;DHT22;3199;49.102;8.856;2022-08-30T01:39:17;19.80;74.50
6333;DHT22;3199;49.102;8.856;2022-08-30T01:41:43;19.80;74.70
6333;DHT22;3199;49.102;8.856;2022-08-30T01:44:10;19.70;74.90
6333;DHT22;3199;49.102;8.856;2022-08-30T01:46:41;19.70;74.90
6333;DHT22;3199;49.102;8.856;2022-08-30T01:49:09;19.70;75.40
6333;DHT22;3199;49.102;8.856;2022-08-30T01:51:36;19.60;75.60
6333;DHT22;3199;49.102;8.856;2022-08-30T01:54:02;19.60;76.10
6333;DHT22;3199;49.102;8.856;2022-08-30T01:56:28;19.60;76.40
6333;DHT22;3199;49.102;8.856;2022-08-30T01:58:54;19.60;76.40
6333;DHT22;3199;49.102;8.856;2022-08-30T02:01:23;19.50;77.10
6333;DHT22;3199;49.102;8.856;2022-08-30T02:03:50;19.50;76.80
6333;DHT22;3199;49.102;8.856;2022-08-30T02:06:18;19.50;77.20
6333;DHT22;3199;49.102;8.856;2022-08-30T02:08:45;19.40;77.10
6333;DHT22;3199;49.102;8.856;2022-08-30T02:11:11;19.40;77.70
6333;DHT22;3199;49.102;8.856;2022-08-30T02:13:38;19.30;77.70
6333;DHT22;3199;49.102;8.856;2022-08-30T02:16:08;19.30;78.30
6333;DHT22;3199;49.102;8.856;2022-08-30T02:18:35;19.30;78.20
6333;DHT22;3199;49.102;8.856;2022-08-30T02:21:01;19.20;78.40
6333;DHT22;3199;49.102;8.856;2022-08-30T02:23:27;19.10;78.60
6333;DHT22;3199;49.102;8.856;2022-08-30T02:25:53;19.20;79.00
6333;DHT22;3199;49.102;8.856;2022-08-30T02:28:19;19.10;79.20
6333;DHT22;3199;49.102;8.856;2022-08-30T02:30:46;19.10;79.20
6333;DHT22;3199;49.102;8.856;2022-08-30T02:33:12;19.10;79.60
6333;DHT22;3199;49.102;8.856;2022-08-30T02:35:37;19.00;79.60
6333;DHT22;3199;49.102;8.856;2022-08-30T02:38:03;19.00;79.70
6333;DHT22;3199;49.102;8.856;2022-08-30T02:40:29;19.00;79.70
6333;DHT22;3199;49.102;8.856;2022-08-30T02:42:54;19.00;79.70
6333;DHT22;3199;49.102;8.856;2022-08-30T02:45:21;19.00;79.80
6333;DHT22;3199;49.102;8.856;2022-08-30T02:47:47;19.00;79.50
6333;DHT22;3199;49.102;8.856;2022-08-30T02:50:13;19.00;79.60
6333;DHT22;3199;49.102;8.856;2022-08-30T02:52:39;19.10;79.90
6333;DHT22;3199;49.102;8.856;2022-08-30T02:55:06;19.10;80.00
6333;DHT22;3199;49.102;8.856;2022-08-30T02:57:32;19.20;80.10
6333;DHT22;3199;49.102;8.856;2022-08-30T02:59:58;19.20;80.10
6333;DHT22;3199;49.102;8.856;2022-08-30T03:02:23;19.20;79.80
6333;DHT22;3199;49.102;8.856;2022-08-30T03:04:50;19.10;79.90
6333;DHT22;3199;49.102;8.856;2022-08-30T03:07:16;19.10;80.20
6333;DHT22;3199;49.102;8.856;2022-08-30T03:09:41;19.10;80.40
6333;DHT22;3199;49.102;8.856;2022-08-30T03:12:08;19.00;80.60
6333;DHT22;3199;49.102;8.856;2022-08-30T03:14:35;19.10;81.10
6333;DHT22;3199;49.102;8.856;2022-08-30T03:17:03;19.10;81.20
6333;DHT22;3199;49.102;8.856;2022-08-30T03:19:29;19.20;80.80
6333;DHT22;3199;49.102;8.856;2022-08-30T03:21:54;19.20;81.00
6333;DHT22;3199;49.102;8.856;2022-08-30T03:24:20;19.20;80.80
6333;DHT22;3199;49.102;8.856;2022-08-30T03:26:45;19.20;80.40
6333;DHT22;3199;49.102;8.856;2022-08-30T03:29:11;19.20;80.40
6333;DHT22;3199;49.102;8.856;2022-08-30T03:31:36;19.20;80.90
6333;DHT22;3199;49.102;8.856;2022-08-30T03:34:03;19.20;80.60
6333;DHT22;3199;49.102;8.856;2022-08-30T03:36:30;19.30;80.70
6333;DHT22;3199;49.102;8.856;2022-08-30T03:38:56;19.30;80.70
6333;DHT22;3199;49.102;8.856;2022-08-30T03:41:22;19.30;80.20
6333;DHT22;3199;49.102;8.856;2022-08-30T03:43:49;19.20;80.50
6333;DHT22;3199;49.102;8.856;2022-08-30T03:46:14;19.20;81.10
6333;DHT22;3199;49.102;8.856;2022-08-30T03:48:41;19.20;81.00
6333;DHT22;3199;49.102;8.856;2022-08-30T03:51:07;19.20;80.80
6333;DHT22;3199;49.102;8.856;2022-08-30T03:53:32;19.10;80.90
6333;DHT22;3199;49.102;8.856;2022-08-30T03:55:58;19.10;80.90
6333;DHT22;3199;49.102;8.856;2022-08-30T03:58:24;19.00;81.10
6333;DHT22;3199;49.102;8.856;2022-08-30T04:00:50;19.00;81.20
6333;DHT22;3199;49.102;8.856;2022-08-30T04:03:15;18.90;81.70
6333;DHT22;3199;49.102;8.856;2022-08-30T04:05:43;18.80;82.80
6333;DHT22;3199;49.102;8.856;2022-08-30T04:08:09;18.80;83.20
6333;DHT22;3199;49.102;8.856;2022-08-30T04:10:35;18.90;83.10
6333;DHT22;3199;49.102;8.856;2022-08-30T04:13:00;18.90;82.70
6333;DHT22;3199;49.102;8.856;2022-08-30T04:15:26;18.90;82.40
6333;DHT22;3199;49.102;8.856;2022-08-30T04:17:51;18.90;83.00
6333;DHT22;3199;49.102;8.856;2022-08-30T04:20:19;18.90;83.10
6333;DHT22;3199;49.102;8.856;2022-08-30T04:22:45;18.90;82.80
6333;DHT22;3199;49.102;8.856;2022-08-30T04:25:10;18.90;83.20
6333;DHT22;3199;49.102;8.856;2022-08-30T04:27:36;18.90;83.00
6333;DHT22;3199;49.102;8.856;2022-08-30T04:30:02;18.80;83.20
6333;DHT22;3199;49.102;8.856;2022-08-30T04:32:28;18.80;84.00
6333;DHT22;3199;49.102;8.856;2022-08-30T04:34:57;18.80;85.60
6333;DHT22;3199;49.102;8.856;2022-08-30T04:37:24;18.80;84.70
6333;DHT22;3199;49.102;8.856;2022-08-30T04:39:49;18.90;84.40
6333;DHT22;3199;49.102;8.856;2022-08-30T04:42:15;18.80;83.30
6333;DHT22;3199;49.102;8.856;2022-08-30T04:44:40;18.80;83.90
6333;DHT22;3199;49.102;8.856;2022-08-30T04:47:06;18.70;84.80
6333;DHT22;3199;49.102;8.856;2022-08-30T04:52:55;18.60;85.80
6333;DHT22;3199;49.102;8.856;2022-08-30T04:55:21;18.60;85.60
6333;DHT22;3199;49.102;8.856;2022-08-30T04:57:48;18.70;86.00
6333;DHT22;3199;49.102;8.856;2022-08-30T05:00:16;18.70;86.30
6333;DHT22;3199;49.102;8.856;2022-08-30T05:02:42;18.80;86.20
6333;DHT22;3199;49.102;8.856;2022-08-30T05:05:08;18.90;86.20
6333;DHT22;3199;49.102;8.856;2022-08-30T05:07:54;18.90;86.10
6333;DHT22;3199;49.102;8.856;2022-08-30T05:10:20;19.00;85.70
6333;DHT22;3199;49.102;8.856;2022-08-30T05:12:45;19.00;86.00
6333;DHT22;3199;49.102;8.856;2022-08-30T05:15:11;19.10;85.90
6333;DHT22;3199;49.102;8.856;2022-08-30T05:17:38;19.10;85.50
6333;DHT22;3199;49.102;8.856;2022-08-30T05:20:06;19.20;85.60
6333;DHT22;3199;49.102;8.856;2022-08-30T05:22:35;19.20;85.70
6333;DHT22;3199;49.102;8.856;2022-08-30T05:25:00;19.30;85.60
6333;DHT22;3199;49.102;8.856;2022-08-30T05:27:26;19.40;85.20
6333;DHT22;3199;49.102;8.856;2022-08-30T05:29:51;19.60;85.00
6333;DHT22;3199;49.102;8.856;2022-08-30T05:32:17;19.70;84.60
6333;DHT22;3199;49.102;8.856;2022-08-30T05:34:43;19.80;84.20
6333;DHT22;3199;49.102;8.856;2022-08-30T05:37:09;19.90;83.70
6333;DHT22;3199;49.102;8.856;2022-08-30T05:39:34;20.00;83.30
6333;DHT22;3199;49.102;8.856;2022-08-30T05:42:00;20.10;83.00
6333;DHT22;3199;49.102;8.856;2022-08-30T05:44:25;20.00;82.90
6333;DHT22;3199;49.102;8.856;2022-08-30T05:46:51;20.00;82.90
6333;DHT22;3199;49.102;8.856;2022-08-30T05:49:17;20.10;83.10
6333;DHT22;3199;49.102;8.856;2022-08-30T05:51:43;20.10;83.00
6333;DHT22;3199;49.102;8.856;2022-08-30T05:54:09;20.30;82.50
6333;DHT22;3199;49.102;8.856;2022-08-30T05:56:36;20.60;82.50
6333;DHT22;3199;49.102;8.856;2022-08-30T05:59:04;20.90;81.80
6333;DHT22;3199;49.102;8.856;2022-08-30T06:03:58;21.50;79.60
6333;DHT22;3199;49.102;8.856;2022-08-30T06:06:26;21.70;78.60
6333;DHT22;3199;49.102;8.856;2022-08-30T06:08:52;22.00;78.80
6333;DHT22;3199;49.102;8.856;2022-08-30T06:11:20;22.40;77.20
6333;DHT22;3199;49.102;8.856;2022-08-30T06:13:47;22.60;76.50
6333;DHT22;3199;49.102;8.856;2022-08-30T06:16:16;22.50;75.70
6333;DHT22;3199;49.102;8.856;2022-08-30T06:18:42;22.70;75.90
6333;DHT22;3199;49.102;8.856;2022-08-30T06:21:08;22.90;75.80
6333;DHT22;3199;49.102;8.856;2022-08-30T06:23:39;23.30;74.70
6333;DHT22;3199;49.102;8.856;2022-08-30T06:26:06;23.60;73.30
6333;DHT22;3199;49.102;8.856;2022-08-30T06:28:32;23.90;72.80
6333;DHT22;3199;49.102;8.856;2022-08-30T06:30:58;24.20;72.60
6333;DHT22;3199;49.102;8.856;2022-08-30T06:33:23;24.70;71.40
6333;DHT22;3199;49.102;8.856;2022-08-30T06:35:49;25.20;70.10
6333;DHT22;3199;49.102;8.856;2022-08-30T06:38:15;25.50;69.30
6333;DHT22;3199;49.102;8.856;2022-08-30T06:40:40;25.90;67.80
6333;DHT22;3199;49.102;8.856;2022-08-30T06:43:06;26.20;66.00
6333;DHT22;3199;49.102;8.856;2022-08-30T06:45:35;26.40;65.40
6333;DHT22;3199;49.102;8.856;2022-08-30T06:48:01;26.50;64.20
6333;DHT22;3199;49.102;8.856;2022-08-30T06:50:27;26.60;63.30
6333;DHT22;3199;49.102;8.856;2022-08-30T06:52:52;26.90;63.10
6333;DHT22;3199;49.102;8.856;2022-08-30T06:55:18;27.10;62.60
6333;DHT22;3199;49.102;8.856;2022-08-30T06:57:45;27.30;62.00
6333;DHT22;3199;49.102;8.856;2022-08-30T07:00:13;27.50;61.30
6333;DHT22;3199;49.102;8.856;2022-08-30T07:02:40;27.70;61.00
6333;DHT22;3199;49.102;8.856;2022-08-30T07:05:06;27.80;60.20
6333;DHT22;3199;49.102;8.856;2022-08-30T07:07:32;27.80;60.30
6333;DHT22;3199;49.102;8.856;2022-08-30T07:10:00;28.00;60.40
6333;DHT22;3199;49.102;8.856;2022-08-30T07:12:25;28.20;59.50
6333;DHT22;3199;49.102;8.856;2022-08-30T07:14:51;28.50;59.30
6333;DHT22;3199;49.102;8.856;2022-08-30T07:17:16;28.90;58.50
6333;DHT22;3199;49.102;8.856;2022-08-30T07:20:02;29.10;57.70
6333;DHT22;3199;49.102;8.856;2022-08-30T07:22:28;29.20;57.70
6333;DHT22;3199;49.102;8.856;2022-08-30T07:24:53;29.30;56.70
6333;DHT22;3199;49.102;8.856;2022-08-30T07:27:19;29.20;56.70
6333;DHT22;3199;49.102;8.856;2022-08-30T07:29:47;29.30;57.80
6333;DHT22;3199;49.102;8.856;2022-08-30T07:32:12;29.40;56.80
6333;DHT22;3199;49.102;8.856;2022-08-30T07:34:38;29.30;57.00
6333;DHT22;3199;49.102;8.856;2022-08-30T07:37:03;29.30;57.30
6333;DHT22;3199;49.102;8.856;2022-08-30T07:39:29;29.30;56.90
6333;DHT22;3199;49.102;8.856;2022-08-30T07:41:54;29.50;57.10
6333;DHT22;3199;49.102;8.856;2022-08-30T07:44:20;29.80;56.90
6333;DHT22;3199;49.102;8.856;2022-08-30T07:46:46;30.20;56.20
6333;DHT22;3199;49.102;8.856;2022-08-30T07:49:11;30.40;55.70
6333;DHT22;3199;49.102;8.856;2022-08-30T07:51:38;30.70;55.60
6333;DHT22;3199;49.102;8.856;2022-08-30T07:54:04;31.00;55.10
6333;DHT22;3199;49.102;8.856;2022-08-30T07:56:29;31.20;54.40
6333;DHT22;3199;49.102;8.856;2022-08-30T07:58:55;31.40;53.60
6333;DHT22;3199;49.102;8.856;2022-08-30T08:01:21;31.40;53.80
6333;DHT22;3199;49.102;8.856;2022-08-30T08:03:47;31.50;53.60
6333;DHT22;3199;49.102;8.856;2022-08-30T08:06:17;31.40;53.80
6333;DHT22;3199;49.102;8.856;2022-08-30T08:08:43;31.60;53.20
6333;DHT22;3199;49.102;8.856;2022-08-30T08:11:19;31.50;53.30
6333;DHT22;3199;49.102;8.856;2022-08-30T08:13:45;31.60;53.20
6333;DHT22;3199;49.102;8.856;2022-08-30T08:16:11;31.70;53.30
6333;DHT22;3199;49.102;8.856;2022-08-30T08:18:37;31.90;52.50
6333;DHT22;3199;49.102;8.856;2022-08-30T08:21:03;32.20;52.60
6333;DHT22;3199;49.102;8.856;2022-08-30T08:23:28;32.40;52.40
6333;DHT22;3199;49.102;8.856;2022-08-30T08:25:54;32.60;52.00
6333;DHT22;3199;49.102;8.856;2022-08-30T08:28:20;32.70;51.40
6333;DHT22;3199;49.102;8.856;2022-08-30T08:30:47;32.70;51.50
6333;DHT22;3199;49.102;8.856;2022-08-30T08:33:14;32.60;51.80
6333;DHT22;3199;49.102;8.856;2022-08-30T08:35:40;32.60;51.10
6333;DHT22;3199;49.102;8.856;2022-08-30T08:38:06;32.30;51.00
6333;DHT22;3199;49.102;8.856;2022-08-30T08:40:44;32.00;51.70
6333;DHT22;3199;49.102;8.856;2022-08-30T08:43:16;31.80;51.80
6333;DHT22;3199;49.102;8.856;2022-08-30T08:45:58;31.60;53.30
6333;DHT22;3199;49.102;8.856;2022-08-30T08:48:50;31.60;52.70
6333;DHT22;3199;49.102;8.856;2022-08-30T08:51:21;31.80;52.40
6333;DHT22;3199;49.102;8.856;2022-08-30T08:54:11;31.90;52.00
6333;DHT22;3199;49.102;8.856;2022-08-30T08:56:38;31.90;51.00
6333;DHT22;3199;49.102;8.856;2022-08-30T08:59:06;31.80;51.40
6333;DHT22;3199;49.102;8.856;2022-08-30T09:01:33;31.70;51.50
6333;DHT22;3199;49.102;8.856;2022-08-30T09:04:02;31.80;51.50
6333;DHT22;3199;49.102;8.856;2022-08-30T09:09:07;31.90;51.70
6333;DHT22;3199;49.102;8.856;2022-08-30T09:11:35;32.10;51.20
6333;DHT22;3199;49.102;8.856;2022-08-30T09:14:03;32.10;51.10
6333;DHT22;3199;49.102;8.856;2022-08-30T09:16:47;32.20;51.20
6333;DHT22;3199;49.102;8.856;2022-08-30T09:24:44;31.80;51.70
6333;DHT22;3199;49.102;8.856;2022-08-30T09:27:25;31.80;51.90
6333;DHT22;3199;49.102;8.856;2022-08-30T09:32:37;31.50;52.40
6333;DHT22;3199;49.102;8.856;2022-08-30T09:35:11;31.40;52.70
6333;DHT22;3199;49.102;8.856;2022-08-30T09:37:46;31.30;52.80
6333;DHT22;3199;49.102;8.856;2022-08-30T09:40:24;31.30;53.10
6333;DHT22;3199;49.102;8.856;2022-08-30T09:45:34;31.40;53.40
6333;DHT22;3199;49.102;8.856;2022-08-30T09:48:26;31.50;54.00
6333;DHT22;3199;49.102;8.856;2022-08-30T10:08:11;32.10;51.90
6333;DHT22;3199;49.102;8.856;2022-08-30T10:19:37;32.60;51.70
6333;DHT22;3199;49.102;8.856;2022-08-30T10:22:49;32.50;51.80
6333;DHT22;3199;49.102;8.856;2022-08-30T10:27:49;32.70;51.50
6333;DHT22;3199;49.102;8.856;2022-08-30T10:30:17;32.40;51.40
6333;DHT22;3199;49.102;8.856;2022-08-30T10:33:00;32.40;51.90
6333;DHT22;3199;49.102;8.856;2022-08-30T10:35:33;32.50;52.70
6333;DHT22;3199;49.102;8.856;2022-08-30T10:38:02;32.60;52.10
6333;DHT22;3199;49.102;8.856;2022-08-30T10:40:35;32.60;51.60
6333;DHT22;3199;49.102;8.856;2022-08-30T10:43:40;32.60;51.60
6333;DHT22;3199;49.102;8.856;2022-08-30T10:46:13;32.60;51.90
6333;DHT22;3199;49.102;8.856;2022-08-30T10:48:43;32.50;51.90
6333;DHT22;3199;49.102;8.856;2022-08-30T10:51:15;32.40;51.30
6333;DHT22;3199;49.102;8.856;2022-08-30T10:53:47;32.40;52.10
6333;DHT22;3199;49.102;8.856;2022-08-30T10:56:21;32.60;52.10
6333;DHT22;3199;49.102;8.856;2022-08-30T10:58:49;32.50;51.20
6333;DHT22;3199;49.102;8.856;2022-08-30T11:01:38;32.60;51.80
6333;DHT22;3199;49.102;8.856;2022-08-30T11:12:35;33.10;50.10
6333;DHT22;3199;49.102;8.856;2022-08-30T11:15:19;32.90;50.80
6333;DHT22;3199;49.102;8.856;2022-08-30T11:17:57;32.70;50.70
6333;DHT22;3199;49.102;8.856;2022-08-30T11:20:47;32.60;51.40
6333;DHT22;3199;49.102;8.856;2022-08-30T11:36:05;32.90;50.10
6333;DHT22;3199;49.102;8.856;2022-08-30T11:46:17;33.20;48.20
6333;DHT22;3199;49.102;8.856;2022-08-30T11:48:47;33.50;48.90
6333;DHT22;3199;49.102;8.856;2022-08-30T11:51:38;33.60;48.60
6333;DHT22;3199;49.102;8.856;2022-08-30T11:54:42;33.70;49.20
6333;DHT22;3199;49.102;8.856;2022-08-30T12:00:09;34.00;48.00
6333;DHT22;3199;49.102;8.856;2022-08-30T12:02:42;34.00;48.10
6333;DHT22;3199;49.102;8.856;2022-08-30T12:08:01;33.70;48.50
6333;DHT22;3199;49.102;8.856;2022-08-30T12:10:42;33.40;49.10
6333;DHT22;3199;49.102;8.856;2022-08-30T12:13:49;33.10;49.20
6333;DHT22;3199;49.102;8.856;2022-08-30T12:16:00;32.70;49.30
6333;DHT22;3199;49.102;8.856;2022-08-30T12:18:37;32.10;50.10
6333;DHT22;3199;49.102;8.856;2022-08-30T12:26:42;30.90;51.50
6333;DHT22;3199;49.102;8.856;2022-08-30T12:29:29;30.80;52.10
6333;DHT22;3199;49.102;8.856;2022-08-30T12:32:04;30.70;52.70
6333;DHT22;3199;49.102;8.856;2022-08-30T12:37:26;30.60;52.30
6333;DHT22;3199;49.102;8.856;2022-08-30T12:42:36;30.80;52.40
6333;DHT22;3199;49.102;8.856;2022-08-30T12:45:12;31.00;52.20
6333;DHT22;3199;49.102;8.856;2022-08-30T12:47:52;31.20;52.00
6333;DHT22;3199;49.102;8.856;2022-08-30T12:50:23;31.40;51.20
6333;DHT22;3199;49.102;8.856;2022-08-30T12:53:15;31.60;50.80
6333;DHT22;3199;49.102;8.856;2022-08-30T12:56:14;31.80;50.00
6333;DHT22;3199;49.102;8.856;2022-08-30T13:01:18;32.30;49.50
6333;DHT22;3199;49.102;8.856;2022-08-30T13:04:12;32.50;49.00
6333;DHT22;3199;49.102;8.856;2022-08-30T13:06:58;32.50;49.20
6333;DHT22;3199;49.102;8.856;2022-08-30T13:09:33;32.50;49.00
6333;DHT22;3199;49.102;8.856;2022-08-30T13:12:01;32.60;48.80
6333;DHT22;3199;49.102;8.856;2022-08-30T13:14:37;32.60;48.60
6333;DHT22;3199;49.102;8.856;2022-08-30T13:17:24;32.80;48.70
6333;DHT22;3199;49.102;8.856;2022-08-30T13:20:04;32.90;48.30
6333;DHT22;3199;49.102;8.856;2022-08-30T13:22:40;32.80;48.20
6333;DHT22;3199;49.102;8.856;2022-08-30T13:25:09;32.70;48.20
6333;DHT22;3199;49.102;8.856;2022-08-30T13:27:36;32.60;49.50
6333;DHT22;3199;49.102;8.856;2022-08-30T13:30:13;32.60;49.00
6333;DHT22;3199;49.102;8.856;2022-08-30T13:32:40;32.60;48.80
6333;DHT22;3199;49.102;8.856;2022-08-30T13:35:07;32.50;48.80
6333;DHT22;3199;49.102;8.856;2022-08-30T13:37:33;32.40;48.90
6333;DHT22;3199;49.102;8.856;2022-08-30T13:39:59;32.30;48.60
6333;DHT22;3199;49.102;8.856;2022-08-30T13:42:25;32.00;48.80
6333;DHT22;3199;49.102;8.856;2022-08-30T13:44:50;31.90;49.00
6333;DHT22;3199;49.102;8.856;2022-08-30T13:47:17;31.90;49.20
6333;DHT22;3199;49.102;8.856;2022-08-30T13:49:43;31.80;49.10
6333;DHT22;3199;49.102;8.856;2022-08-30T13:52:12;31.70;49.00
6333;DHT22;3199;49.102;8.856;2022-08-30T13:54:38;31.70;49.20
6333;DHT22;3199;49.102;8.856;2022-08-30T13:57:04;31.70;49.20
6333;DHT22;3199;49.102;8.856;2022-08-30T13:59:30;31.60;49.20
6333;DHT22;3199;49.102;8.856;2022-08-30T14:01:59;31.40;49.50
6333;DHT22;3199;49.102;8.856;2022-08-30T14:04:25;31.30;49.80
6333;DHT22;3199;49.102;8.856;2022-08-30T14:06:51;31.30;49.80
6333;DHT22;3199;49.102;8.856;2022-08-30T14:09:16;31.30;50.60
6333;DHT22;3199;49.102;8.856;2022-08-30T14:11:42;31.40;49.70
6333;DHT22;3199;49.102;8.856;2022-08-30T14:17:23;31.40;50.10
6333;DHT22;3199;49.102;8.856;2022-08-30T14:40:06;30.70;50.20
6333;DHT22;3199;49.102;8.856;2022-08-30T14:42:31;30.70;50.40
6333;DHT22;3199;49.102;8.856;2022-08-30T14:44:57;30.70;50.30
6333;DHT22;3199;49.102;8.856;2022-08-30T14:47:23;30.60;50.30
6333;DHT22;3199;49.102;8.856;2022-08-30T14:49:48;30.50;50.40
6333;DHT22;3199;49.102;8.856;2022-08-30T14:52:14;30.50;51.10
6333;DHT22;3199;49.102;8.856;2022-08-30T14:54:39;30.50;50.80
6333;DHT22;3199;49.102;8.856;2022-08-30T14:57:05;30.40;50.70
6333;DHT22;3199;49.102;8.856;2022-08-30T14:59:30;30.40;50.90
6333;DHT22;3199;49.102;8.856;2022-08-30T15:01:56;30.40;50.90
6333;DHT22;3199;49.102;8.856;2022-08-30T15:04:21;30.40;50.50
6333;DHT22;3199;49.102;8.856;2022-08-30T15:06:47;30.40;50.50
6333;DHT22;3199;49.102;8.856;2022-08-30T15:09:16;30.40;50.90
6333;DHT22;3199;49.102;8.856;2022-08-30T15:11:44;30.30;50.50
6333;DHT22;3199;49.102;8.856;2022-08-30T15:14:10;30.20;50.70
6333;DHT22;3199;49.102;8.856;2022-08-30T15:16:37;30.20;50.60
6333;DHT22;3199;49.102;8.856;2022-08-30T15:19:05;30.30;50.60
6333;DHT22;3199;49.102;8.856;2022-08-30T15:21:34;30.30;50.80
6333;DHT22;3199;49.102;8.856;2022-08-30T15:24:01;30.20;50.40
6333;DHT22;3199;49.102;8.856;2022-08-30T15:26:27;30.10;50.60
6333;DHT22;3199;49.102;8.856;2022-08-30T15:28:53;30.00;50.70
6333;DHT22;3199;49.102;8.856;2022-08-30T15:31:19;30.00;50.70
6333;DHT22;3199;49.102;8.856;2022-08-30T15:33:46;29.90;51.00
6333;DHT22;3199;49.102;8.856;2022-08-30T15:36:11;29.80;50.80
6333;DHT22;3199;49.102;8.856;2022-08-30T15:38:37;29.70;51.10
6333;DHT22;3199;49.102;8.856;2022-08-30T15:41:07;29.70;51.30
6333;DHT22;3199;49.102;8.856;2022-08-30T15:43:33;29.60;51.20
6333;DHT22;3199;49.102;8.856;2022-08-30T15:46:16;29.50;51.00
6333;DHT22;3199;49.102;8.856;2022-08-30T15:48:44;29.50;50.90
6333;DHT22;3199;49.102;8.856;2022-08-30T15:51:09;29.50;51.20
6333;DHT22;3199;49.102;8.856;2022-08-30T15:53:35;29.50;51.30
6333;DHT22;3199;49.102;8.856;2022-08-30T15:56:01;29.50;51.70
6333;DHT22;3199;49.102;8.856;2022-08-30T15:58:27;29.50;51.80
6333;DHT22;3199;49.102;8.856;2022-08-30T16:00:52;29.50;51.30
6333;DHT22;3199;49.102;8.856;2022-08-30T16:03:18;29.40;51.00
6333;DHT22;3199;49.102;8.856;2022-08-30T16:05:43;29.30;51.20
6333;DHT22;3199;49.102;8.856;2022-08-30T16:08:09;29.30;51.30
6333;DHT22;3199;49.102;8.856;2022-08-30T16:10:37;29.20;51.50
6333;DHT22;3199;49.102;8.856;2022-08-30T16:13:03;29.20;51.60
6333;DHT22;3199;49.102;8.856;2022-08-30T16:15:29;29.20;51.40
6333;DHT22;3199;49.102;8.856;2022-08-30T16:17:54;29.20;51.80
6333;DHT22;3199;49.102;8.856;2022-08-30T16:20:20;29.10;51.30
6333;DHT22;3199;49.102;8.856;2022-08-30T16:22:45;29.00;51.30
6333;DHT22;3199;49.102;8.856;2022-08-30T16:25:11;29.00;51.70
6333;DHT22;3199;49.102;8.856;2022-08-30T16:27:36;28.90;51.80
6333;DHT22;3199;49.102;8.856;2022-08-30T16:30:08;28.80;51.70
6333;DHT22;3199;49.102;8.856;2022-08-30T16:32:33;28.60;51.90
6333;DHT22;3199;49.102;8.856;2022-08-30T16:34:59;28.60;52.10
6333;DHT22;3199;49.102;8.856;2022-08-30T16:37:24;28.50;52.30
6333;DHT22;3199;49.102;8.856;2022-08-30T16:39:50;28.50;52.50
6333;DHT22;3199;49.102;8.856;2022-08-30T16:42:15;28.50;52.40
6333;DHT22;3199;49.102;8.856;2022-08-30T16:44:41;28.40;52.50
6333;DHT22;3199;49.102;8.856;2022-08-30T16:47:06;28.40;52.80
6333;DHT22;3199;49.102;8.856;2022-08-30T16:49:32;28.40;52.90
6333;DHT22;3199;49.102;8.856;2022-08-30T16:51:57;28.40;53.20
6333;DHT22;3199;49.102;8.856;2022-08-30T16:54:23;28.30;53.20
6333;DHT22;3199;49.102;8.856;2022-08-30T16:56:49;28.30;53.20
6333;DHT22;3199;49.102;8.856;2022-08-30T16:59:14;28.30;53.20
6333;DHT22;3199;49.102;8.856;2022-08-30T17:01:41;28.30;53.00
6333;DHT22;3199;49.102;8.856;2022-08-30T17:04:09;28.20;52.60
6333;DHT22;3199;49.102;8.856;2022-08-30T17:06:35;28.10;53.00
6333;DHT22;3199;49.102;8.856;2022-08-30T17:09:00;28.10;52.90
6333;DHT22;3199;49.102;8.856;2022-08-30T17:11:26;28.00;53.10
6333;DHT22;3199;49.102;8.856;2022-08-30T17:13:53;28.00;53.50
6333;DHT22;3199;49.102;8.856;2022-08-30T17:16:19;28.00;53.60
6333;DHT22;3199;49.102;8.856;2022-08-30T17:18:45;27.90;53.80
6333;DHT22;3199;49.102;8.856;2022-08-30T17:21:11;27.80;53.80
6333;DHT22;3199;49.102;8.856;2022-08-30T17:23:36;27.80;54.10
6333;DHT22;3199;49.102;8.856;2022-08-30T17:26:02;27.70;54.20
6333;DHT22;3199;49.102;8.856;2022-08-30T17:28:28;27.60;54.50
6333;DHT22;3199;49.102;8.856;2022-08-30T17:30:53;27.60;54.40
6333;DHT22;3199;49.102;8.856;2022-08-30T17:33:19;27.50;54.60
6333;DHT22;3199;49.102;8.856;2022-08-30T17:35:45;27.50;54.50
6333;DHT22;3199;49.102;8.856;2022-08-30T17:38:11;27.40;54.00
6333;DHT22;3199;49.102;8.856;2022-08-30T17:40:36;27.40;54.00
6333;DHT22;3199;49.102;8.856;2022-08-30T17:43:02;27.30;54.20
6333;DHT22;3199;49.102;8.856;2022-08-30T17:45:27;27.20;54.30
6333;DHT22;3199;49.102;8.856;2022-08-30T17:47:53;27.20;54.50
6333;DHT22;3199;49.102;8.856;2022-08-30T17:50:19;27.10;54.40
6333;DHT22;3199;49.102;8.856;2022-08-30T17:52:45;27.10;54.80
6333;DHT22;3199;49.102;8.856;2022-08-30T17:55:10;27.10;54.80
6333;DHT22;3199;49.102;8.856;2022-08-30T17:57:36;27.00;54.80
6333;DHT22;3199;49.102;8.856;2022-08-30T18:00:07;26.90;55.10
6333;DHT22;3199;49.102;8.856;2022-08-30T18:02:34;26.90;55.30
6333;DHT22;3199;49.102;8.856;2022-08-30T18:05:00;26.80;55.50
6333;DHT22;3199;49.102;8.856;2022-08-30T18:07:26;26.70;55.50
6333;DHT22;3199;49.102;8.856;2022-08-30T18:09:51;26.70;56.30